Dryland Event Management

Virtual Series: Momentum Health Attakwas Extreme

Presented by:

Cape Multisport Club


Momentum Health Attakwas Extreme (Virtual) Results

PRELIMINARY

OVERALL (MALE)

Overall Age Position ID Surname Name Gender Distance Age Group Time Ave Speed Ave Cadence Ave Watts W/kg
1 1 537621 DAVEL JACO M 128 Veteran 04:01:38 31.9 81 284 4.12
2 2 1738866 [WHITE STONE CYCLES] MURRAY CRAIB M 128 Veteran 04:06:58 31.2 83 312 4.16
3 1 13118726 LOUW SAREL M 128 Sub Vet Men 04:07:55 31.1 73 306 3.97
4 2 38436113 MENEZES ADF M 128 Sub Vet Men 04:27:32 28.8 0 268 3.72
5 3 657302 BAKER MIKE M 128 Veteran 04:31:31 28.4 75 267 3.71
6 4 5270927 DREYER (FITCH & LEEDES) MC M 128 Veteran 04:42:22 27.3 86 276 3.33
7 5 2188781 VOLSCHENK JOHAN M 128 Veteran 04:43:51 27.1 83 273 3.33
8 6 12764681 DE WET JOHANN M 128 Veteran 04:50:05 26.5 86 271 3.35
9 7 17732269 ROUX PIERRE M 128 Veteran 04:55:47 26 0 231 3.35
10 3 13273357 BOONZAIER JOHAN M 128 Sub Vet Men 05:03:20 25.4 69 233 3.07
11 4 1521585 COETZEE KRIS M 128 Sub Vet Men 05:08:01 25 78 276 2.88
12 5 3677588 KNIGHT - CRANX CHRIS M 128 Sub Vet Men 05:09:50 24.8 75 222 2.78
13 8 2102629 DOCKTER SEBASTIAN M 128 Veteran 05:16:10 24.3 72 231 2.96
14 6 1099966 ISAACS MALCOLM M 128 Sub Vet Men 05:21:38 23.9 82 209 2.79
15 13180018 ENGELS NAUDE M 128 05:38:42 22.7 0 202 INF
16 9 1071409 KLEYNSCHELDT WALTER M 128 Veteran 05:40:11 22.6 85 211 2.51
17 7 21919155 BURGER MURRAY M 128 Sub Vet Men 05:42:40 22.5 81 187 2.53
18 10 2749564 JOUBERT JACQUES M 128 Veteran 05:43:32 22.4 78 227 2.52
19 1 1699023 FERDINANDI MARCO M 128 Masters 05:58:41 21.5 0 0 0
20 11 3592020 OBERHOLZER BRENDAN M 128 Veteran 06:00:28 21.4 67 167 INF
21 12742923 SMITH MICHAEL M 128 06:08:39 20.9 0 178 INF
22 12 3373726 DU TOIT HENNIE M 128 Veteran 06:09:44 20.8 73 191 2.17
23 13 21163767 POSON CLINTON M 128 Veteran 06:11:54 20.7 78 151 2.32
24 8 1787797 DE WITT CLINTON M 128 Sub Vet Men 06:17:17 20.4 71 168 INF
25 2 2013996 FARMER MARK M 128 Masters 06:21:37 20.2 74 173 INF
26 9 6518613 DU PLESSIS JACQUES M 128 Sub Vet Men 06:42:46 19.1 70 190 2.04
27 10 1375395 KEET RAYMOND M 128 Sub Vet Men 06:53:27 18.6 0 187 INF
28 14 19599534 GROBLER MORNE M 128 Veteran 06:55:19 18.5 76 149 INF
29 15 8300355 GREYLING BAREND M 128 Veteran 07:01:48 18.3 75 171 INF
30 3 24698454 MOUNTAINBIKER SILENT M 128 Masters 07:04:32 18.1 85 144 2.06
31 16 18600539 ROBERTSON SAM M 128 Veteran 07:04:38 18.1 67 154 1.93
32 4 30882608 HENNOP STEF M 128 Masters 07:48:49 16.4 0 130 1.67
33 5 14246998 MEINKE CLAUS M 128 Masters 09:04:36 14.1 64 139 1.29
34 17 7743680 CORNERSTONE CYCLES PAARL SAREL M 128 Veteran 10:20:20 12.4 63 141 1.34
35 7440817 VISSER MIKE M 128 10:20:37 12.4 58 128 INF

OVERALL (FEMALE)

Overall Age Position ID Surname Name Gender Distance Age Group Time Ave Speed Ave Cadence Ave Watts W/kg
1 1 5619298 VAN DER LINDE MARISA F 128 Veteran 05:05:11 25.2 80 213 3.04
2 1 7497976 KERNES CAMILLA F 128 Sub Vet Female 05:28:59 23.4 68 177 INF
3 2 2876605 FERDINANDI CANDICE F 128 Veteran 06:24:14 20 0 129 2.3
4 1 28246701 BREARLEY KIM F 128 Masters 06:24:47 20 72 123 2.41
5 8175152 ROODT MARLISE F 128 08:31:50 15 24 105 INF
6 3 3916493 ALBERTYN CATHERINE F 128 Veteran 10:20:51 12.4 46 98 1.31